Time;durP1;ratioP1;P1;durP2;ratioP2;P2;SDS_P1;SDS_P2;PMS_P1;PMS_P2;Temp;Humidity;BMP_temperature;BMP_pressure;BME280_temperature;BME280_humidity;BME280_pressure;Samples;Min_cycle;Max_cycle;Signal;HPM_P1;HPM_P2
2022/07/06 00:04:39;;;;;;;8.13;5.20;;;;;;;12.58;100.00;97132.22;10291961;28;20214;-51
2022/07/06 00:09:42;;;;;;;6.78;4.70;;;;;;;12.45;100.00;97134.44;10292481;28;20249;-51
2022/07/06 00:14:43;;;;;;;5.00;4.03;;;;;;;12.42;100.00;97116.38;10292033;28;20218;-50
2022/07/06 00:19:43;;;;;;;6.32;4.60;;;;;;;12.33;100.00;97115.53;10291804;28;20187;-51
2022/07/06 00:24:43;;;;;;;5.78;4.40;;;;;;;12.24;100.00;97105.97;10292052;28;20245;-52
2022/07/06 00:29:44;;;;;;;6.55;4.55;;;;;;;12.15;100.00;97122.69;10290947;28;20668;-51
2022/07/06 00:34:44;;;;;;;9.33;5.30;;;;;;;12.12;100.00;97119.38;10291542;28;20633;-51
2022/07/06 00:39:44;;;;;;;6.23;4.53;;;;;;;12.06;100.00;97117.38;10289842;28;20398;-52
2022/07/06 00:44:45;;;;;;;7.00;5.07;;;;;;;12.04;100.00;97105.38;10290784;28;20211;-54
2022/07/06 00:55:04;;;;;;;11.03;6.53;;;;;;;11.82;100.00;97096.19;10289362;28;20261;-51
2022/07/06 01:00:06;;;;;;;8.00;6.88;;;;;;;11.78;100.00;97093.06;10290060;28;20207;-53
2022/07/06 01:05:08;;;;;;;10.20;7.70;;;;;;;11.80;100.00;97092.91;10289809;28;20214;-53
2022/07/06 01:10:10;;;;;;;7.90;6.25;;;;;;;11.79;100.00;97102.56;10289884;28;20215;-54
2022/07/06 01:15:14;;;;;;;7.93;7.13;;;;;;;11.79;100.00;97092.06;10289584;28;20763;-54
2022/07/06 01:20:24;;;;;;;8.20;5.10;;;;;;;11.80;100.00;97079.78;10288650;28;20546;-51
2022/07/06 01:25:24;;;;;;;7.80;5.90;;;;;;;11.90;100.00;97076.06;10289391;28;20309;-55
2022/07/06 01:30:25;;;;;;;11.07;6.20;;;;;;;11.91;100.00;97071.63;10289251;28;20222;-53
2022/07/06 01:35:26;;;;;;;10.33;6.53;;;;;;;11.97;100.00;97067.59;10289776;28;20238;-51
2022/07/06 01:40:26;;;;;;;6.65;5.90;;;;;;;11.98;100.00;97067.44;10287722;28;20265;-49
2022/07/06 01:45:27;;;;;;;6.87;6.00;;;;;;;11.95;100.00;97083.50;10287745;28;20209;-56
2022/07/06 01:50:27;;;;;;;11.40;7.20;;;;;;;11.88;100.00;97079.81;10289052;28;20210;-51
2022/07/06 01:55:28;;;;;;;15.03;7.03;;;;;;;11.93;100.00;97080.22;10287183;28;20230;-53
2022/07/06 02:00:29;;;;;;;8.17;6.43;;;;;;;12.02;100.00;97076.66;10292669;28;20241;-50
2022/07/06 02:05:29;;;;;;;10.23;5.17;;;;;;;12.01;100.00;97077.63;10294959;28;20226;-49
2022/07/06 02:10:29;;;;;;;6.97;4.80;;;;;;;12.01;100.00;97079.44;10295357;28;20191;-53
2022/07/06 02:15:30;;;;;;;7.00;5.97;;;;;;;11.93;100.00;97056.59;10296579;28;20670;-52
2022/07/06 02:20:30;;;;;;;6.63;5.33;;;;;;;11.88;100.00;97049.16;10295258;28;20190;-50
2022/07/06 02:25:31;;;;;;;5.73;4.20;;;;;;;12.01;100.00;97053.19;10296262;28;20724;-54
2022/07/06 02:30:31;;;;;;;6.13;4.80;;;;;;;12.06;100.00;97051.72;10295914;28;20270;-52
2022/07/06 02:35:33;;;;;;;6.87;4.70;;;;;;;12.08;100.00;97044.53;10294880;28;20210;-52
2022/07/06 02:40:34;;;;;;;6.33;4.50;;;;;;;12.06;100.00;97056.16;10294166;28;20198;-52
2022/07/06 02:45:34;;;;;;;7.57;5.13;;;;;;;11.91;100.00;97051.47;10294065;28;20205;-52
2022/07/06 02:50:35;;;;;;;10.73;5.30;;;;;;;11.88;100.00;97053.56;10295221;28;20589;-51
2022/07/06 02:55:35;;;;;;;5.47;4.87;;;;;;;11.88;100.00;97048.31;10293882;28;20631;-54
2022/07/06 03:00:37;;;;;;;7.30;5.00;;;;;;;11.90;100.00;97054.25;10295499;28;20246;-55
2022/07/06 03:05:38;;;;;;;5.23;4.67;;;;;;;11.92;100.00;97058.38;10322873;28;20239;-53
2022/07/06 03:10:38;;;;;;;5.38;4.65;;;;;;;11.95;100.00;97058.06;10332739;28;20244;-50
2022/07/06 03:15:39;;;;;;;6.20;4.20;;;;;;;11.87;100.00;97068.50;10334567;28;20269;-50
2022/07/06 03:20:39;;;;;;;6.30;4.53;;;;;;;11.78;100.00;97066.81;10333184;28;20273;-50
2022/07/06 03:25:43;;;;;;;7.70;5.00;;;;;;;11.71;100.00;97069.22;10332975;28;20639;-50
2022/07/06 03:30:44;;;;;;;6.30;5.03;;;;;;;11.71;100.00;97068.41;10331828;28;20221;-50
2022/07/06 03:35:45;;;;;;;5.63;4.65;;;;;;;11.63;100.00;97069.16;10332823;28;20244;-51
2022/07/06 03:40:46;;;;;;;5.70;4.80;;;;;;;11.58;100.00;97063.56;10332177;28;20229;-50
2022/07/06 03:45:47;;;;;;;5.33;4.83;;;;;;;11.50;100.00;97066.13;10332440;28;20272;-56
2022/07/06 03:50:47;;;;;;;5.20;4.70;;;;;;;11.37;100.00;97062.09;10333318;28;20221;-55
2022/07/06 03:56:27;;;;;;;8.03;5.93;;;;;;;11.34;100.00;97067.66;10332884;28;20229;-55
2022/07/06 04:01:09;;;;;;;6.77;6.10;;;;;;;11.32;100.00;97074.84;10366652;23;20239;-54
2022/07/06 04:06:09;;;;;;;9.20;5.33;;;;;;;11.29;100.00;97066.47;10453105;28;20216;-56
2022/07/06 04:11:10;;;;;;;6.80;6.03;;;;;;;11.39;100.00;97078.53;10453696;28;20208;-55
2022/07/06 04:16:11;;;;;;;7.13;5.50;;;;;;;11.41;100.00;97083.63;10453617;28;20692;-54
2022/07/06 04:21:11;;;;;;;6.17;5.57;;;;;;;11.40;100.00;97077.53;10454642;28;20214;-53
2022/07/06 04:26:12;;;;;;;6.33;5.70;;;;;;;11.52;100.00;97078.13;10452500;28;20757;-53
2022/07/06 04:31:15;;;;;;;7.00;6.03;;;;;;;11.63;100.00;97077.03;10453375;28;20207;-55
2022/07/06 04:36:17;;;;;;;7.13;5.90;;;;;;;11.60;100.00;97080.78;10453166;28;20183;-55
2022/07/06 04:41:18;;;;;;;6.57;5.73;;;;;;;11.82;100.00;97085.69;10452831;28;20212;-55
2022/07/06 04:46:19;;;;;;;8.13;5.30;;;;;;;11.93;100.00;97086.28;10453518;28;20219;-58
2022/07/06 04:51:21;;;;;;;6.13;5.43;;;;;;;12.10;100.00;97089.00;10452550;28;20211;-57
2022/07/06 04:56:22;;;;;;;6.23;5.00;;;;;;;12.25;100.00;97099.72;10452193;28;20593;-58
2022/07/06 05:01:23;;;;;;;7.53;4.13;;;;;;;12.39;100.00;97095.69;10452094;28;20239;-57
2022/07/06 05:06:24;;;;;;;5.75;3.72;;;;;;;12.59;100.00;97104.97;10451699;28;20220;-58
2022/07/06 05:11:24;;;;;;;5.38;4.80;;;;;;;12.94;100.00;97107.50;10452903;28;20208;-55
2022/07/06 05:16:26;;;;;;;6.10;4.07;;;;;;;13.16;100.00;97111.34;10451594;28;20179;-57
2022/07/06 05:21:26;;;;;;;5.97;4.20;;;;;;;13.45;100.00;97105.63;10451469;28;20246;-58
2022/07/06 05:26:27;;;;;;;7.10;3.83;;;;;;;13.62;100.00;97100.34;10451223;28;20220;-58
2022/07/06 05:31:28;;;;;;;4.03;3.25;;;;;;;14.12;100.00;97091.38;10451618;28;20215;-59
2022/07/06 05:36:30;;;;;;;4.80;2.97;;;;;;;14.30;100.00;97103.47;10450772;28;20192;-58
2022/07/06 05:41:32;;;;;;;3.70;3.38;;;;;;;14.59;100.00;97114.25;10450930;28;20204;-59
2022/07/06 05:46:34;;;;;;;6.57;3.35;;;;;;;14.58;100.00;97111.78;10449805;28;20219;-59
2022/07/06 05:51:35;;;;;;;4.65;3.17;;;;;;;14.83;100.00;97112.50;10450256;28;20753;-61
2022/07/06 05:56:35;;;;;;;8.45;2.80;;;;;;;15.27;100.00;97117.16;10451842;28;20208;-60
2022/07/06 06:01:36;;;;;;;3.13;2.35;;;;;;;15.26;100.00;97125.25;10449617;28;20255;-62
2022/07/06 06:06:43;;;;;;;3.80;2.20;;;;;;;15.29;100.00;97115.16;10450456;28;20220;-61
2022/07/06 06:11:44;;;;;;;4.60;2.55;;;;;;;14.83;100.00;97120.41;10450139;28;20211;-62
2022/07/06 06:16:44;;;;;;;4.97;2.00;;;;;;;15.40;100.00;97132.41;10450001;28;20278;-62
2022/07/06 06:21:44;;;;;;;4.47;2.10;;;;;;;15.56;100.00;97128.84;10427375;28;20333;-61
2022/07/06 06:26:45;;;;;;;2.70;2.03;;;;;;;15.97;100.00;97131.16;10450894;28;20817;-61
2022/07/06 06:31:45;;;;;;;2.40;1.88;;;;;;;16.31;100.00;97137.72;10451317;28;20690;-61
2022/07/06 06:36:45;;;;;;;5.00;2.00;;;;;;;16.15;100.00;97136.06;10451182;28;20534;-61
2022/07/06 06:41:46;;;;;;;4.60;1.77;;;;;;;17.54;92.43;97118.56;10451146;28;20647;-62
2022/07/06 06:46:46;;;;;;;4.43;2.15;;;;;;;17.57;86.69;97099.66;10453310;28;20570;-62
2022/07/06 06:51:46;;;;;;;8.35;2.08;;;;;;;17.18;90.49;97141.47;10458503;28;20700;-62
2022/07/06 06:56:47;;;;;;;3.83;1.40;;;;;;;17.78;89.55;97131.41;10455848;28;21141;-61
2022/07/06 07:01:47;;;;;;;3.97;1.83;;;;;;;17.55;84.18;97109.59;10451368;28;20747;-62
2022/07/06 07:06:48;;;;;;;3.72;1.83;;;;;;;17.25;85.70;97128.28;10456172;28;20227;-58
2022/07/06 07:11:48;;;;;;;2.45;1.73;;;;;;;17.07;90.96;97149.88;10453312;28;20220;-60
2022/07/06 07:16:48;;;;;;;4.93;1.90;;;;;;;17.79;86.35;97129.56;10454176;28;20341;-62
2022/07/06 07:21:49;;;;;;;3.08;1.58;;;;;;;17.73;86.11;97138.28;10450137;28;20211;-60
2022/07/06 07:26:49;;;;;;;3.00;1.77;;;;;;;17.45;87.50;97149.66;10455988;28;20239;-60
2022/07/06 07:31:49;;;;;;;7.50;1.88;;;;;;;19.32;78.38;97083.56;10450543;28;20213;-60
2022/07/06 07:36:50;;;;;;;3.17;1.70;;;;;;;19.61;73.65;97048.59;10435934;28;20230;-60
2022/07/06 07:41:50;;;;;;;2.60;1.40;;;;;;;18.36;79.67;97125.06;10451972;28;20227;-60
2022/07/06 07:46:52;;;;;;;6.57;2.00;;;;;;;18.65;77.76;97100.13;10447093;28;20231;-60
2022/07/06 07:51:52;;;;;;;6.63;1.70;;;;;;;18.28;79.72;97134.00;10446277;28;20215;-61
2022/07/06 07:56:54;;;;;;;4.78;1.63;;;;;;;19.51;74.86;97084.59;10445622;28;20262;-60
2022/07/06 08:01:54;;;;;;;4.03;2.08;;;;;;;18.99;73.29;97073.69;10454609;28;20250;-60
2022/07/06 08:06:55;;;;;;;6.68;2.00;;;;;;;18.81;73.58;97083.03;10451845;28;21033;-62
2022/07/06 08:11:56;;;;;;;6.22;2.22;;;;;;;17.98;77.56;97128.13;10453051;28;20574;-60
2022/07/06 08:16:57;;;;;;;7.53;1.73;;;;;;;17.76;82.42;97159.09;10462117;28;20245;-60
2022/07/06 08:21:58;;;;;;;3.13;1.50;;;;;;;18.21;78.39;97113.75;10465799;28;20215;-60
2022/07/06 08:26:59;;;;;;;3.30;1.60;;;;;;;18.37;78.13;97121.41;10465023;28;20224;-58
2022/07/06 08:31:59;;;;;;;2.97;1.63;;;;;;;18.41;78.16;97125.31;10453610;28;20222;-55
2022/07/06 08:36:59;;;;;;;3.83;1.80;;;;;;;18.75;74.13;97083.00;10452957;28;20187;-57
2022/07/06 08:42:00;;;;;;;5.20;1.48;;;;;;;18.50;73.11;97084.34;10451628;28;20560;-55
2022/07/06 08:47:04;;;;;;;4.53;1.52;;;;;;;18.17;73.97;97102.75;10450042;28;20266;-61
2022/07/06 08:52:07;;;;;;;3.00;1.38;;;;;;;18.19;72.88;97087.44;10450871;28;20207;-58
2022/07/06 08:57:08;;;;;;;3.08;1.45;;;;;;;17.85;74.89;97112.88;10432350;28;20192;-60
2022/07/06 09:02:13;;;;;;;5.20;1.65;;;;;;;18.70;69.07;97043.81;10429970;28;20660;-61
2022/07/06 09:07:13;;;;;;;10.75;2.00;;;;;;;19.15;66.75;97012.25;10426563;28;20242;-59
2022/07/06 09:12:14;;;;;;;4.88;1.67;;;;;;;19.08;63.91;96990.16;10408948;28;20216;-60
2022/07/06 09:17:14;;;;;;;3.72;0.90;;;;;;;18.30;63.80;96980.81;10409745;28;20224;-62
2022/07/06 09:22:25;;;;;;;1.10;0.85;;;;;;;18.88;61.38;96943.19;10409938;28;20215;-61
2022/07/06 09:27:25;;;;;;;3.22;1.10;;;;;;;18.56;62.06;96967.81;10423911;28;20233;-59
2022/07/06 09:32:25;;;;;;;3.97;1.30;;;;;;;18.78;62.13;96976.44;10449927;28;20310;-60
2022/07/06 09:37:29;;;;;;;6.10;1.17;;;;;;;18.75;62.08;96977.66;10448357;28;20192;-57
2022/07/06 09:42:30;;;;;;;2.45;1.27;;;;;;;19.13;64.71;97040.84;10448787;28;20212;-59
2022/07/06 09:47:31;;;;;;;2.25;1.25;;;;;;;19.05;63.13;97003.84;10448167;28;20314;-61
2022/07/06 09:52:35;;;;;;;8.43;1.70;;;;;;;18.67;64.06;97017.66;10450207;28;20622;-59
2022/07/06 09:57:35;;;;;;;2.63;1.15;;;;;;;18.92;64.27;97041.03;10450022;28;20184;-60
2022/07/06 10:02:36;;;;;;;5.10;1.80;;;;;;;18.66;64.56;97038.06;10442607;22;20715;-72
2022/07/06 10:07:36;;;;;;;4.45;1.65;;;;;;;19.16;64.11;97043.09;10373752;28;20787;-72
2022/07/06 10:12:37;;;;;;;2.40;1.20;;;;;;;20.20;60.43;96990.22;10389876;28;20669;-72
2022/07/06 10:17:39;;;;;;;4.68;1.55;;;;;;;19.94;58.11;96936.09;10390161;28;20184;-72
2022/07/06 10:22:40;;;;;;;4.28;1.70;;;;;;;19.54;57.89;96922.06;10394138;28;20193;-73
2022/07/06 10:27:40;;;;;;;3.58;1.20;;;;;;;20.41;58.25;96969.66;10414492;28;20216;-72
2022/07/06 10:32:42;;;;;;;4.57;1.23;;;;;;;21.80;55.05;96931.50;10380699;28;20196;-72
2022/07/06 10:37:42;;;;;;;7.35;2.15;;;;;;;21.87;54.70;96918.91;10395410;28;20197;-72
2022/07/06 10:42:59;;;;;;;3.08;1.17;;;;;;;21.19;55.82;96932.06;10397831;28;20710;-72
2022/07/06 10:48:20;;;;;;;12.35;1.65;;;;;;;21.10;53.76;96869.44;10396544;28;20219;-72
2022/07/06 10:53:23;;;;;;;4.53;1.23;;;;;;;20.13;57.51;96945.00;10414307;28;20287;-72
2022/07/06 10:58:39;;;;;;;8.68;1.70;;;;;;;20.57;58.24;96971.81;10396100;28;20189;-72
2022/07/06 11:03:47;;;;;;;2.95;1.17;;;;;;;21.40;54.15;96892.72;10395989;28;20314;-72
2022/07/06 11:08:57;;;;;;;6.10;1.45;;;;;;;19.48;58.94;96962.75;10413178;28;20865;-72
2022/07/06 11:14:04;;;;;;;6.30;1.60;;;;;;;18.67;62.30;97022.97;10413293;28;20228;-72
2022/07/06 11:19:11;;;;;;;4.82;1.35;;;;;;;19.60;60.14;96983.19;10394531;28;20576;-72
2022/07/06 11:24:17;;;;;;;3.28;1.38;;;;;;;21.49;52.82;96861.25;10413361;28;20188;-72
2022/07/06 11:29:21;;;;;;;3.85;1.48;;;;;;;19.71;58.59;96943.69;10395300;28;20774;-72
2022/07/06 11:34:24;;;;;;;5.78;1.30;;;;;;;21.74;57.70;96983.84;10411286;28;20254;-72
2022/07/06 11:39:32;;;;;;;5.10;1.48;;;;;;;21.33;54.89;96907.94;10392688;28;20246;-72
2022/07/06 11:44:34;;;;;;;2.63;1.40;;;;;;;22.90;51.98;96877.00;10410846;28;20193;-73
2022/07/06 11:49:36;;;;;;;3.55;1.42;;;;;;;22.32;53.38;96899.84;10393577;28;20231;-72
2022/07/06 11:54:36;;;;;;;1.75;1.33;;;;;;;23.11;51.31;96877.50;10411551;28;20756;-73
2022/07/06 11:59:39;;;;;;;3.78;1.30;;;;;;;22.88;52.40;96884.44;10393912;28;20191;-72
2022/07/06 12:04:44;;;;;;;5.15;1.50;;;;;;;22.59;52.41;96886.13;10410827;28;20241;-72
2022/07/06 12:09:46;;;;;;;2.78;1.27;;;;;;;23.20;49.12;96813.81;10409831;28;20252;-72
2022/07/06 12:14:46;;;;;;;3.25;1.25;;;;;;;22.39;50.87;96841.06;10410900;28;20537;-72
2022/07/06 12:19:52;;;;;;;3.08;1.50;;;;;;;21.57;50.17;96786.34;10410552;28;20193;-72
2022/07/06 12:24:53;;;;;;;5.55;1.63;;;;;;;20.10;54.18;96867.50;10409324;28;20238;-71
2022/07/06 12:30:08;;;;;;;5.22;1.48;;;;;;;23.28;51.65;96875.75;10408178;28;20772;-72
2022/07/06 12:35:09;;;;;;;3.80;1.25;;;;;;;24.77;45.98;96767.97;10393645;28;20323;-71
2022/07/06 12:40:14;;;;;;;5.93;1.13;;;;;;;23.93;44.92;96723.25;10409344;28;20200;-71
2022/07/06 12:45:14;;;;;;;5.22;1.20;;;;;;;22.61;48.53;96779.91;10406681;28;20667;-72
2022/07/06 12:50:15;;;;;;;4.72;1.33;;;;;;;22.16;48.08;96759.03;10405384;28;20299;-71
2022/07/06 12:55:16;;;;;;;4.80;1.33;;;;;;;22.90;48.73;96798.72;10408946;28;20278;-71
2022/07/06 13:00:17;;;;;;;3.05;1.23;;;;;;;24.11;47.94;96800.63;10409161;28;20250;-72
2022/07/06 13:05:18;;;;;;;4.82;1.20;;;;;;;23.60;48.15;96781.75;10409073;28;20604;-72
2022/07/06 13:10:22;;;;;;;2.35;1.02;;;;;;;21.64;47.57;96712.41;10407713;28;20704;-75
2022/07/06 13:15:25;;;;;;;4.88;1.35;;;;;;;23.84;46.77;96769.13;10390191;28;20259;-72
2022/07/06 13:20:25;;;;;;;3.22;1.15;;;;;;;25.38;43.00;96708.19;10408901;28;20609;-72
2022/07/06 13:25:26;;;;;;;2.35;0.93;;;;;;;23.69;45.78;96726.00;10408384;28;20181;-72
2022/07/06 13:30:26;;;;;;;3.20;1.27;;;;;;;23.12;47.37;96773.06;10408569;28;20227;-72
2022/07/06 13:35:26;;;;;;;6.72;1.55;;;;;;;24.61;44.83;96742.00;10408578;28;20184;-71
2022/07/06 13:40:27;;;;;;;6.70;1.20;;;;;;;23.06;46.26;96733.06;10407722;28;20191;-72
2022/07/06 13:45:27;;;;;;;1.27;1.00;;;;;;;25.18;42.40;96701.50;10405282;28;20196;-72
2022/07/06 13:50:32;;;;;;;3.28;0.90;;;;;;;28.69;37.57;96669.06;10406403;28;20216;-72
2022/07/06 13:55:32;;;;;;;3.40;1.00;;;;;;;26.31;39.64;96648.06;10410497;28;20247;-72
2022/07/06 14:00:33;;;;;;;6.43;1.15;;;;;;;26.83;39.19;96644.63;10415862;28;20544;-71
2022/07/06 14:05:33;;;;;;;3.97;1.40;;;;;;;27.22;39.51;96683.75;10415966;28;20240;-72
2022/07/06 14:10:34;;;;;;;3.40;0.93;;;;;;;27.59;40.76;96732.03;10398454;28;20482;-72
2022/07/06 14:15:34;;;;;;;5.03;0.95;;;;;;;27.09;39.17;96657.34;10414732;28;20205;-72
2022/07/06 14:20:35;;;;;;;4.20;1.08;;;;;;;26.28;39.35;96625.25;10415109;28;20199;-72
2022/07/06 14:25:36;;;;;;;1.17;0.83;;;;;;;25.39;41.88;96685.66;10414109;28;20189;-72
2022/07/06 14:30:37;;;;;;;1.27;0.80;;;;;;;25.78;39.38;96605.78;10414934;28;20471;-71
2022/07/06 14:35:47;;;;;;;4.53;1.05;;;;;;;25.27;40.93;96648.25;10414534;28;20188;-72
2022/07/06 14:40:48;;;;;;;6.30;1.10;;;;;;;23.64;42.18;96633.09;10414229;28;20211;-71
2022/07/06 14:45:49;;;;;;;4.45;1.00;;;;;;;26.45;39.90;96672.63;10389068;28;20201;-72
2022/07/06 14:50:49;;;;;;;3.67;0.90;;;;;;;27.82;36.70;96594.50;10410475;28;20263;-72
2022/07/06 14:55:50;;;;;;;3.37;1.20;;;;;;;29.69;34.17;96594.31;10413724;28;20676;-72
2022/07/06 15:00:51;;;;;;;4.30;1.10;;;;;;;23.84;43.04;96651.41;10415698;28;20756;-72
2022/07/06 15:05:52;;;;;;;4.65;1.17;;;;;;;24.88;40.46;96618.84;10417712;28;20474;-71
2022/07/06 15:10:52;;;;;;;1.35;0.85;;;;;;;24.72;40.00;96604.47;10419871;28;20216;-72
2022/07/06 15:15:52;;;;;;;2.33;1.00;;;;;;;26.82;38.98;96666.41;10414525;28;20188;-72
2022/07/06 15:20:53;;;;;;;2.83;0.90;;;;;;;30.24;33.19;96600.31;10412384;28;20189;-72
2022/07/06 15:25:54;;;;;;;5.37;1.30;;;;;;;29.00;34.61;96599.59;10411614;28;20435;-72
2022/07/06 15:30:55;;;;;;;4.90;1.00;;;;;;;27.02;36.57;96569.66;10411710;28;20475;-72
2022/07/06 15:35:55;;;;;;;1.30;0.88;;;;;;;29.20;33.80;96579.00;10412601;28;20685;-72
2022/07/06 15:40:59;;;;;;;5.20;1.10;;;;;;;27.17;36.95;96579.66;10412485;28;20242;-72
2022/07/06 15:46:01;;;;;;;2.03;0.80;;;;;;;26.14;39.58;96635.63;10409041;28;20958;-72
2022/07/06 15:51:02;;;;;;;5.20;0.90;;;;;;;25.09;39.81;96601.13;10406310;28;20192;-72
2022/07/06 15:56:02;;;;;;;1.58;1.00;;;;;;;24.46;41.10;96617.50;10410894;28;20188;-71
2022/07/06 16:01:03;;;;;;;5.20;1.13;;;;;;;23.43;41.57;96609.75;10410308;28;20279;-72
2022/07/06 16:06:04;;;;;;;4.03;0.93;;;;;;;22.40;44.75;96661.97;10409772;28;20236;-71
2022/07/06 16:11:05;;;;;;;4.03;1.30;;;;;;;22.82;45.39;96702.88;10380089;28;20685;-71
2022/07/06 16:16:06;;;;;;;4.68;0.98;;;;;;;22.24;44.88;96662.66;10369194;28;20287;-71
2022/07/06 16:21:07;;;;;;;5.00;1.25;;;;;;;22.65;44.46;96654.72;10369570;28;20185;-71
2022/07/06 16:26:07;;;;;;;2.50;1.08;;;;;;;22.72;43.35;96629.53;10404571;28;20225;-71
2022/07/06 16:31:07;;;;;;;4.10;1.02;;;;;;;21.78;45.39;96642.91;10409963;28;20208;-71
2022/07/06 16:36:09;;;;;;;4.57;0.82;;;;;;;22.53;45.47;96686.81;10409544;28;21012;-72
2022/07/06 16:41:09;;;;;;;2.58;0.95;;;;;;;21.98;45.31;96654.03;10409338;28;20201;-71
2022/07/06 16:46:10;;;;;;;4.85;0.88;;;;;;;21.80;44.94;96646.13;10408840;28;20656;-71
2022/07/06 16:51:10;;;;;;;4.85;1.08;;;;;;;21.41;45.86;96648.31;10390710;28;20264;-73
2022/07/06 16:56:10;;;;;;;1.15;0.90;;;;;;;20.13;49.22;96702.16;10408079;28;20204;-72
2022/07/06 17:01:11;;;;;;;6.38;1.00;;;;;;;21.00;47.37;96680.81;10407656;28;20188;-72
2022/07/06 17:06:11;;;;;;;4.70;1.10;;;;;;;21.25;47.40;96703.06;10407722;28;20251;-72
2022/07/06 17:11:12;;;;;;;4.60;0.93;;;;;;;20.83;47.04;96677.16;10406956;28;20546;-72
2022/07/06 17:16:13;;;;;;;2.97;1.20;;;;;;;21.13;45.86;96653.22;10390284;28;20196;-72
2022/07/06 17:21:13;;;;;;;4.15;0.90;;;;;;;20.93;46.67;96665.97;10407203;28;20192;-72
2022/07/06 17:26:14;;;;;;;3.53;1.00;;;;;;;20.40;47.38;96654.00;10407266;28;20891;-72
2022/07/06 17:31:14;;;;;;;5.45;0.90;;;;;;;20.02;47.42;96661.13;10406350;28;20791;-72
2022/07/06 17:36:15;;;;;;;2.20;0.93;;;;;;;19.85;48.24;96676.00;10407050;28;20676;-72
2022/07/06 17:41:15;;;;;;;6.53;0.90;;;;;;;19.20;49.85;96711.50;10407833;28;20717;-72
2022/07/06 17:46:16;;;;;;;2.70;0.93;;;;;;;19.22;49.41;96710.28;10408174;28;20312;-72
2022/07/06 17:51:16;;;;;;;1.95;0.90;;;;;;;19.16;50.49;96744.84;10408871;28;20626;-72
2022/07/06 17:56:17;;;;;;;1.50;0.70;;;;;;;19.03;50.74;96758.97;10408480;28;20204;-72
2022/07/06 18:01:17;;;;;;;4.03;0.80;;;;;;;18.82;52.44;96791.84;10408362;28;20196;-72
2022/07/06 18:06:18;;;;;;;2.83;0.82;;;;;;;18.58;52.29;96772.91;10408503;28;20236;-72
2022/07/06 18:11:18;;;;;;;3.60;1.10;;;;;;;18.34;53.00;96799.03;10408010;28;20192;-72
2022/07/06 18:16:19;;;;;;;3.40;0.82;;;;;;;18.33;53.49;96812.50;10408540;28;20283;-72
2022/07/06 18:21:19;;;;;;;1.10;1.00;;;;;;;18.20;55.25;96841.66;10407859;28;20285;-72
2022/07/06 18:26:20;;;;;;;3.22;1.00;;;;;;;17.96;56.12;96851.78;10406904;28;20188;-72
2022/07/06 18:31:20;;;;;;;2.45;1.23;;;;;;;17.83;57.27;96881.72;10406358;28;20287;-72
2022/07/06 18:36:20;;;;;;;2.53;1.10;;;;;;;17.61;57.94;96883.63;10406922;28;20610;-72
2022/07/06 18:41:21;;;;;;;2.70;1.00;;;;;;;17.30;58.01;96884.91;10406360;28;20653;-72
2022/07/06 18:46:21;;;;;;;2.60;0.95;;;;;;;17.03;58.60;96874.16;10412831;28;20689;-72
2022/07/06 18:51:22;;;;;;;1.88;1.02;;;;;;;16.62;60.34;96909.22;10413089;28;20201;-72
2022/07/06 18:56:22;;;;;;;5.10;1.70;;;;;;;15.63;64.16;96966.00;10414298;28;20279;-72
2022/07/06 19:01:23;;;;;;;4.95;1.38;;;;;;;15.53;66.36;96994.53;10414481;28;20211;-72
2022/07/06 19:06:23;;;;;;;5.50;1.20;;;;;;;14.97;68.50;97013.31;10414426;28;20220;-72
2022/07/06 19:11:24;;;;;;;2.28;0.90;;;;;;;13.62;74.45;97079.28;10412402;28;20197;-72
2022/07/06 19:16:24;;;;;;;2.05;1.13;;;;;;;13.27;75.91;97071.53;10412468;28;20215;-72
2022/07/06 19:21:24;;;;;;;6.47;1.27;;;;;;;12.97;79.48;97070.34;10413834;28;20192;-71
2022/07/06 19:26:25;;;;;;;3.60;1.10;;;;;;;13.03;80.46;97053.94;10413919;28;20370;-71
2022/07/06 19:31:26;;;;;;;2.58;1.25;;;;;;;12.83;82.91;97058.66;10413618;28;20193;-72
2022/07/06 19:36:26;;;;;;;2.95;1.08;;;;;;;12.77;83.55;97057.53;10413120;28;20223;-72
2022/07/06 19:41:26;;;;;;;3.00;1.20;;;;;;;12.96;83.27;97066.91;10413269;28;20192;-72
2022/07/06 19:46:27;;;;;;;3.47;1.30;;;;;;;12.74;85.81;97068.38;10412620;28;20192;-72
2022/07/06 19:51:27;;;;;;;2.13;1.10;;;;;;;12.83;85.60;97058.66;10412861;28;20281;-72
2022/07/06 19:56:28;;;;;;;2.47;1.20;;;;;;;12.74;86.96;97075.41;10412145;28;20238;-72
2022/07/06 20:01:28;;;;;;;5.15;1.40;;;;;;;12.56;88.14;97072.94;10411509;28;20588;-74
2022/07/06 20:06:28;;;;;;;3.63;1.30;;;;;;;12.51;89.51;97072.56;10412156;28;20219;-72
2022/07/06 20:11:29;;;;;;;2.60;1.58;;;;;;;11.94;91.97;97074.81;10411394;28;20249;-72
2022/07/06 20:16:30;;;;;;;3.78;2.00;;;;;;;11.94;93.15;97073.97;10412046;28;20211;-72
2022/07/06 20:21:30;;;;;;;3.00;1.75;;;;;;;11.86;93.87;97066.03;10411759;28;20287;-72
2022/07/06 20:26:30;;;;;;;2.47;1.70;;;;;;;11.76;93.91;97060.88;10411155;28;22522;-72
2022/07/06 20:31:31;;;;;;;3.63;1.67;;;;;;;11.84;93.67;97067.97;10411536;28;20660;-72
2022/07/06 20:36:31;;;;;;;4.60;1.83;;;;;;;11.74;93.75;97071.53;10410765;28;20641;-72
2022/07/06 20:41:31;;;;;;;4.57;1.92;;;;;;;11.63;95.03;97069.16;10411189;28;20211;-72
2022/07/06 20:46:32;;;;;;;3.83;1.80;;;;;;;11.58;95.95;97067.00;10410831;28;20307;-71
2022/07/06 20:51:32;;;;;;;3.15;1.70;;;;;;;11.39;97.61;97061.94;10410309;28;20189;-72
2022/07/06 20:56:33;;;;;;;4.03;2.00;;;;;;;11.20;99.29;97062.97;10410799;28;20253;-72
2022/07/06 21:01:33;;;;;;;8.37;1.80;;;;;;;11.24;100.00;97052.03;10411596;28;20279;-72
2022/07/06 21:06:34;;;;;;;4.07;1.65;;;;;;;11.14;100.00;97053.91;10409472;28;20331;-72
2022/07/06 21:11:35;;;;;;;3.07;1.50;;;;;;;11.02;100.00;97069.03;10410048;28;20216;-72
2022/07/06 21:16:35;;;;;;;4.70;2.17;;;;;;;10.87;100.00;97078.38;10409404;28;20667;-72
2022/07/06 21:21:35;;;;;;;3.43;1.80;;;;;;;10.76;100.00;97073.38;10409524;28;20275;-71
2022/07/06 21:26:36;;;;;;;5.73;1.50;;;;;;;10.62;100.00;97069.47;10409702;28;20236;-72
2022/07/06 21:31:36;;;;;;;3.17;1.50;;;;;;;10.51;100.00;97065.28;10392431;28;20222;-71
2022/07/06 21:36:37;;;;;;;4.30;1.90;;;;;;;10.35;100.00;97065.91;10410203;28;20242;-72
2022/07/06 21:41:37;;;;;;;4.60;1.73;;;;;;;10.40;100.00;97073.31;10409598;28;20279;-71
2022/07/06 21:46:37;;;;;;;3.83;1.73;;;;;;;10.33;100.00;97071.28;10392512;28;20283;-71
2022/07/06 21:51:38;;;;;;;2.00;1.63;;;;;;;10.27;100.00;97063.16;10409520;28;20185;-71
2022/07/06 21:56:38;;;;;;;1.90;1.50;;;;;;;10.14;100.00;97063.50;10409904;28;20280;-72
2022/07/06 22:01:38;;;;;;;4.53;1.83;;;;;;;9.95;100.00;97065.25;10409297;28;20196;-72
2022/07/06 22:06:39;;;;;;;4.17;2.00;;;;;;;9.97;100.00;97067.72;10409240;28;20224;-71
2022/07/06 22:11:39;;;;;;;5.20;2.13;;;;;;;9.83;100.00;97061.13;10408185;28;20259;-72
2022/07/06 22:16:41;;;;;;;2.10;1.67;;;;;;;9.72;100.00;97064.75;10411210;28;20595;-71
2022/07/06 22:21:42;;;;;;;5.03;1.70;;;;;;;9.62;100.00;97063.97;10414985;28;20199;-72
2022/07/06 22:26:42;;;;;;;5.53;1.77;;;;;;;9.52;100.00;97058.75;10415371;28;20215;-72
2022/07/06 22:31:43;;;;;;;7.20;2.00;;;;;;;9.41;100.00;97058.91;10413379;28;20188;-72
2022/07/06 22:36:43;;;;;;;3.27;1.80;;;;;;;9.39;100.00;97071.31;10416731;28;20180;-72
2022/07/06 22:41:43;;;;;;;3.13;1.40;;;;;;;9.19;100.00;97068.72;10416524;28;20185;-72
2022/07/06 22:46:44;;;;;;;5.37;1.97;;;;;;;9.09;100.00;97058.25;10416125;28;20219;-72
2022/07/06 22:51:44;;;;;;;9.00;2.00;;;;;;;9.02;100.00;97051.94;10416031;28;20276;-73
2022/07/06 22:56:44;;;;;;;8.10;1.70;;;;;;;9.00;100.00;97058.25;10416392;28;20185;-73
2022/07/06 23:01:45;;;;;;;5.33;1.50;;;;;;;8.93;100.00;97053.59;10414850;28;20234;-73
2022/07/06 23:06:46;;;;;;;1.63;1.53;;;;;;;8.79;100.00;97051.41;10415811;28;20252;-72
2022/07/06 23:11:46;;;;;;;3.93;1.30;;;;;;;8.69;100.00;97056.59;10414833;28;20997;-72
2022/07/06 23:16:46;;;;;;;2.67;2.00;;;;;;;8.63;100.00;97048.50;10415166;28;20680;-72
2022/07/06 23:21:47;;;;;;;4.03;2.00;;;;;;;8.58;100.00;97051.50;10414962;28;20630;-72